Time;durP1;ratioP1;P1;durP2;ratioP2;P2;SDS_P1;SDS_P2;PMS_P1;PMS_P2;Temp;Humidity;BMP_temperature;BMP_pressure;BME280_temperature;BME280_humidity;BME280_pressure;Samples;Min_cycle;Max_cycle;Signal;HPM_P1;HPM_P2
2020/12/01 00:00:55;;;;;;;14.08;7.81;;;;;;;0.69;61.87;100346.57;358745;108;2896908;-74
2020/12/01 00:02:01;;;;;;;12.71;6.70;;;;;;;0.67;61.97;100350.33;354803;108;1962040;-74
2020/12/01 00:03:06;;;;;;;15.98;7.86;;;;;;;0.65;62.07;100340.64;370266;108;1964897;-75
2020/12/01 00:04:11;;;;;;;13.73;7.12;;;;;;;0.65;62.10;100350.44;368370;108;1960942;-76
2020/12/01 00:05:19;;;;;;;13.76;7.59;;;;;;;0.63;62.19;100342.57;367044;108;1961963;-75
2020/12/01 00:06:31;;;;;;;13.22;6.97;;;;;;;0.62;62.14;100345.37;368382;108;1961910;-75
2020/12/01 00:07:38;;;;;;;14.01;6.88;;;;;;;0.60;62.23;100341.98;334058;108;2629939;-74
2020/12/01 00:08:44;;;;;;;12.70;7.04;;;;;;;0.58;62.34;100344.79;367234;108;1962993;-74
2020/12/01 00:09:50;;;;;;;12.83;6.19;;;;;;;0.58;62.43;100343.92;369758;108;1961926;-74
2020/12/01 00:10:56;;;;;;;15.03;7.07;;;;;;;0.56;62.54;100341.41;342482;108;2481942;-74
2020/12/01 00:12:01;;;;;;;13.16;7.19;;;;;;;0.54;62.61;100340.67;350190;110;1964008;-74
2020/12/01 00:13:07;;;;;;;14.03;8.17;;;;;;;0.52;62.70;100342.61;364278;106;1960784;-75
2020/12/01 00:14:13;;;;;;;14.68;7.80;;;;;;;0.50;62.87;100341.05;371936;108;1963957;-75
2020/12/01 00:15:22;;;;;;;13.93;7.49;;;;;;;0.48;62.93;100343.84;351991;106;1963950;-74
2020/12/01 00:16:28;;;;;;;15.81;7.81;;;;;;;0.47;63.08;100347.45;329020;106;2214837;-73
2020/12/01 00:17:34;;;;;;;15.33;8.24;;;;;;;0.47;63.18;100349.27;370059;106;1963965;-74
2020/12/01 00:18:41;;;;;;;14.78;7.28;;;;;;;0.46;63.16;100356.41;371326;106;1961971;-74
2020/12/01 00:19:46;;;;;;;14.06;8.24;;;;;;;0.46;63.27;100352.91;346802;107;2447079;-74
2020/12/01 00:20:52;;;;;;;13.23;7.74;;;;;;;0.47;63.31;100358.09;363935;108;1961945;-74
2020/12/01 00:21:58;;;;;;;14.91;8.15;;;;;;;0.48;63.31;100366.90;364961;108;1962991;-73
2020/12/01 00:23:04;;;;;;;16.34;9.27;;;;;;;0.49;63.22;100363.29;363605;106;1962002;-72
2020/12/01 00:24:13;;;;;;;17.22;9.46;;;;;;;0.48;63.20;100365.11;342967;108;2520910;-73
2020/12/01 00:25:20;;;;;;;17.51;9.68;;;;;;;0.48;63.20;100367.77;352988;106;1961960;-75
2020/12/01 00:26:27;;;;;;;17.41;8.61;;;;;;;0.50;63.20;100360.48;370119;108;1961991;-75
2020/12/01 00:27:33;;;;;;;16.11;9.04;;;;;;;0.48;63.25;100367.77;359253;107;2208935;-75
2020/12/01 00:28:39;;;;;;;16.76;8.48;;;;;;;0.49;63.21;100357.97;368851;108;1961936;-73
2020/12/01 00:29:44;;;;;;;15.59;8.32;;;;;;;0.49;63.16;100366.78;363309;106;1962193;-75
2020/12/01 00:30:50;;;;;;;16.01;8.48;;;;;;;0.48;63.15;100364.23;358698;110;1961946;-74
2020/12/01 00:31:56;;;;;;;17.46;8.91;;;;;;;0.48;63.18;100362.45;322965;112;2655994;-73
2020/12/01 00:33:01;;;;;;;17.41;8.87;;;;;;;0.48;63.24;100364.23;342304;112;1962955;-74
2020/12/01 00:34:10;;;;;;;16.30;9.86;;;;;;;0.48;63.15;100375.74;352511;112;1961941;-74
2020/12/01 00:35:19;;;;;;;16.91;8.75;;;;;;;0.48;63.08;100374.88;357807;109;1960724;-74
2020/12/01 00:36:26;;;;;;;16.09;8.99;;;;;;;0.46;63.23;100375.02;359229;110;1963938;-74
2020/12/01 00:37:32;;;;;;;15.44;8.21;;;;;;;0.46;63.28;100372.36;357995;109;1961951;-74
2020/12/01 00:38:38;;;;;;;16.92;9.44;;;;;;;0.47;63.30;100368.72;345963;110;2224926;-75
2020/12/01 00:39:43;;;;;;;16.74;9.90;;;;;;;0.47;63.31;100365.22;337703;112;1962055;-74
2020/12/01 00:40:49;;;;;;;17.91;9.64;;;;;;;0.48;63.39;100361.58;353525;111;1962967;-75
2020/12/01 00:41:55;;;;;;;16.92;8.74;;;;;;;0.47;63.43;100355.42;358712;112;1962048;-75
2020/12/01 00:43:00;;;;;;;16.10;8.54;;;;;;;0.48;63.46;100362.45;336638;110;2405975;-75
2020/12/01 00:44:06;;;;;;;17.76;9.04;;;;;;;0.47;63.48;100358.09;349940;110;1962016;-75
2020/12/01 00:45:13;;;;;;;19.67;9.59;;;;;;;0.48;63.53;100354.48;356503;112;1964017;-75
2020/12/01 00:46:19;;;;;;;18.05;9.91;;;;;;;0.48;63.60;100361.58;331081;110;2479011;-76
2020/12/01 00:47:25;;;;;;;18.30;9.97;;;;;;;0.48;63.59;100350.95;353836;113;1962081;-75
2020/12/01 00:48:30;;;;;;;17.27;9.39;;;;;;;0.48;63.66;100358.92;353044;112;1962008;-76
2020/12/01 00:49:36;;;;;;;15.31;8.75;;;;;;;0.50;63.71;100354.34;357536;110;1963904;-77
2020/12/01 00:50:44;;;;;;;16.54;8.83;;;;;;;0.50;63.41;100351.67;350654;112;1961979;-76
2020/12/01 00:51:51;;;;;;;17.95;8.67;;;;;;;0.51;63.58;100354.22;330660;109;2862982;-76
2020/12/01 00:52:56;;;;;;;18.29;10.70;;;;;;;0.51;63.53;100348.91;336575;112;1961956;-76
2020/12/01 00:54:03;;;;;;;16.29;9.23;;;;;;;0.52;63.25;100358.56;356653;111;1962985;-75
2020/12/01 00:55:09;;;;;;;16.62;9.18;;;;;;;0.52;63.33;100345.27;358529;111;1961961;-75
2020/12/01 00:56:22;;;;;;;17.37;8.66;;;;;;;0.51;63.29;100350.73;324437;111;1986686;-75
2020/12/01 00:57:27;;;;;;;16.49;8.45;;;;;;;0.53;63.24;100354.95;357810;112;1961915;-75
2020/12/01 00:58:33;;;;;;;15.62;9.15;;;;;;;0.54;63.29;100355.80;337472;111;2323988;-75
2020/12/01 00:59:41;;;;;;;15.66;8.59;;;;;;;0.56;63.28;100361.84;353395;111;1962022;-75
2020/12/01 01:00:49;;;;;;;16.47;9.19;;;;;;;0.56;63.19;100356.52;351670;113;1961989;-75
2020/12/01 01:01:55;;;;;;;19.23;10.37;;;;;;;0.57;63.10;100352.87;352797;112;1962034;-75
2020/12/01 01:03:01;;;;;;;16.91;8.32;;;;;;;0.57;63.17;100359.03;345385;110;2268008;-75
2020/12/01 01:04:06;;;;;;;17.64;8.71;;;;;;;0.57;63.12;100353.72;339835;114;1962928;-75
2020/12/01 01:05:12;;;;;;;17.93;9.36;;;;;;;0.58;63.07;100357.21;352154;112;1962019;-76
2020/12/01 01:06:18;;;;;;;14.95;8.20;;;;;;;0.57;63.05;100356.38;360477;111;1961946;-76
2020/12/01 01:07:24;;;;;;;13.96;7.97;;;;;;;0.56;62.96;100352.04;330710;110;2525993;-75
2020/12/01 01:08:29;;;;;;;15.59;8.51;;;;;;;0.55;63.13;100352.98;344129;110;1962916;-75
2020/12/01 01:09:35;;;;;;;17.22;8.28;;;;;;;0.56;63.20;100354.70;357764;110;1961013;-75
2020/12/01 01:10:42;;;;;;;16.99;9.19;;;;;;;0.57;63.12;100345.74;313482;110;2875108;-76
2020/12/01 01:11:48;;;;;;;16.83;7.74;;;;;;;0.58;63.15;100355.42;334193;111;1962013;-76
2020/12/01 01:12:53;;;;;;;13.64;7.86;;;;;;;0.58;63.05;100346.58;359360;111;1963915;-76
2020/12/01 01:13:59;;;;;;;14.68;7.63;;;;;;;0.57;63.00;100345.74;357782;111;1962111;-76
2020/12/01 01:15:05;;;;;;;15.48;8.16;;;;;;;0.55;63.08;100346.83;318767;112;2757087;-76
2020/12/01 01:16:14;;;;;;;14.59;7.63;;;;;;;0.56;63.23;100351.20;357350;110;1963005;-76
2020/12/01 01:17:19;;;;;;;14.29;7.14;;;;;;;0.55;63.22;100350.33;343548;111;2204037;-76
2020/12/01 01:18:24;;;;;;;14.52;7.71;;;;;;;0.58;63.26;100349.23;340103;110;1962022;-76
2020/12/01 01:19:30;;;;;;;13.60;7.87;;;;;;;0.57;63.30;100353.72;357609;110;1963991;-76
2020/12/01 01:20:38;;;;;;;14.77;7.49;;;;;;;0.58;63.33;100357.21;330980;111;2560031;-76
2020/12/01 01:21:47;;;;;;;14.83;7.78;;;;;;;0.58;63.38;100355.42;354880;110;1961981;-75
2020/12/01 01:22:52;;;;;;;13.77;7.14;;;;;;;0.58;63.29;100355.42;323784;111;1997062;-74
2020/12/01 01:23:57;;;;;;;13.51;7.87;;;;;;;0.58;63.37;100351.90;358294;110;1965051;-74
2020/12/01 01:25:05;;;;;;;14.78;8.14;;;;;;;0.59;63.48;100358.92;358387;110;1961944;-74
2020/12/01 01:26:11;;;;;;;14.87;7.86;;;;;;;0.59;63.55;100357.10;343197;110;1961914;-74
2020/12/01 01:27:17;;;;;;;14.21;8.57;;;;;;;0.59;63.50;100357.10;347276;114;1961965;-74
2020/12/01 01:28:23;;;;;;;15.56;8.55;;;;;;;0.59;63.56;100351.78;359276;111;1962007;-74
2020/12/01 01:29:30;;;;;;;16.22;7.98;;;;;;;0.58;63.59;100354.55;325808;111;2664975;-74
2020/12/01 01:30:38;;;;;;;13.48;8.08;;;;;;;0.56;63.59;100357.36;357681;111;1961916;-74
2020/12/01 01:31:43;;;;;;;14.60;7.37;;;;;;;0.56;63.60;100357.36;339122;112;2316937;-74
2020/12/01 01:32:49;;;;;;;12.96;7.53;;;;;;;0.55;63.67;100360.97;357608;112;1963957;-75
2020/12/01 01:33:55;;;;;;;14.10;7.58;;;;;;;0.53;63.70;100362.92;353158;112;1963039;-75
2020/12/01 01:35:01;;;;;;;13.08;7.66;;;;;;;0.52;63.80;100363.03;337191;112;2207045;-74
2020/12/01 01:36:06;;;;;;;14.33;8.01;;;;;;;0.53;63.90;100362.92;350362;109;1961952;-75
2020/12/01 01:37:12;;;;;;;14.71;7.43;;;;;;;0.54;63.88;100361.95;359332;111;1962960;-75
2020/12/01 01:38:17;;;;;;;16.53;8.94;;;;;;;0.55;63.91;100366.28;358824;110;1961922;-75
2020/12/01 01:39:23;;;;;;;14.61;7.38;;;;;;;0.56;63.95;100369.81;362521;105;1960805;-74
2020/12/01 01:40:30;;;;;;;14.82;8.21;;;;;;;0.55;64.01;100365.44;353001;109;2207994;-75
2020/12/01 01:41:37;;;;;;;15.57;8.27;;;;;;;0.55;64.06;100370.76;368114;108;1963935;-76
2020/12/01 01:42:43;;;;;;;17.12;8.57;;;;;;;0.56;64.11;100362.67;322637;110;2069754;-75
2020/12/01 01:43:48;;;;;;;14.22;8.73;;;;;;;0.56;64.17;100365.33;357084;110;1963938;-75
2020/12/01 01:44:54;;;;;;;15.91;8.96;;;;;;;0.58;64.28;100370.51;362517;110;1961915;-76
2020/12/01 01:46:01;;;;;;;15.93;8.05;;;;;;;0.58;64.34;100370.51;361298;110;1962014;-75
2020/12/01 01:47:24;;;;;;;13.81;7.59;;;;;;;0.59;64.48;100369.55;349420;110;1960941;-75
2020/12/01 01:48:32;;;;;;;18.00;9.62;;;;;;;0.59;64.47;100367.73;323820;114;2520075;-75
2020/12/01 01:49:41;;;;;;;15.74;8.01;;;;;;;0.58;64.65;100363.40;360040;110;1963986;-76
2020/12/01 01:50:54;;;;;;;14.48;8.12;;;;;;;0.58;64.61;100359.88;350587;113;1963113;-75
2020/12/01 01:52:23;;;;;;;15.10;8.73;;;;;;;0.59;64.59;100367.73;349712;113;1964017;-75
2020/12/01 01:53:32;;;;;;;16.61;8.14;;;;;;;0.59;64.67;100356.27;357436;109;1962993;-74
2020/12/01 01:54:38;;;;;;;14.29;8.44;;;;;;;0.59;64.79;100348.29;353819;107;1963993;-73
2020/12/01 01:55:45;;;;;;;18.14;8.76;;;;;;;0.59;64.77;100351.78;365855;107;1962957;-75
2020/12/01 01:56:54;;;;;;;13.94;7.85;;;;;;;0.57;64.92;100353.72;327821;109;2715996;-74
2020/12/01 01:58:02;;;;;;;16.86;8.82;;;;;;;0.57;64.96;100358.20;321881;109;2718993;-74
2020/12/01 01:59:11;;;;;;;14.69;8.34;;;;;;;0.57;64.95;100363.52;365730;107;1961979;-74
2020/12/01 02:00:56;;;;;;;16.57;8.81;;;;;;;0.55;64.94;100355.64;361058;110;1961933;-75
2020/12/01 02:02:03;;;;;;;15.34;8.11;;;;;;;0.55;65.00;100355.64;368249;109;1964943;-74
2020/12/01 02:03:09;;;;;;;16.33;8.74;;;;;;;0.56;65.06;100356.52;365807;109;1961987;-75
2020/12/01 02:04:15;;;;;;;16.35;8.96;;;;;;;0.56;65.12;100356.52;366729;107;1962037;-74
2020/12/01 02:05:21;;;;;;;18.92;9.64;;;;;;;0.58;65.23;100354.55;324055;107;2820899;-74
2020/12/01 02:06:35;;;;;;;15.56;8.82;;;;;;;0.58;65.23;100359.88;361798;110;1961930;-74
2020/12/01 02:07:40;;;;;;;;;;;;;;;0.59;65.22;100361.58;330386;107;2236998;-74
2020/12/01 02:09:00;;;;;;;22.41;10.99;;;;;;;0.59;65.41;100361.58;352396;110;1960904;-74
2020/12/01 02:10:07;;;;;;;18.97;10.72;;;;;;;0.59;65.89;100362.42;353505;112;1962006;-75
2020/12/01 02:11:14;;;;;;;25.09;12.96;;;;;;;0.59;65.86;100359.76;355273;112;1961932;-75
2020/12/01 02:12:20;;;;;;;20.03;11.85;;;;;;;0.59;66.54;100359.76;358224;109;1963973;-75
2020/12/01 02:13:35;;;;;;;21.57;12.39;;;;;;;0.58;66.64;100359.88;368463;108;1962010;-75
2020/12/01 02:14:59;;;;;;;22.69;12.55;;;;;;;0.57;67.25;100361.69;370081;108;1962981;-75
2020/12/01 02:16:05;;;;;;;22.41;13.52;;;;;;;0.56;67.23;100357.36;369989;106;1961928;-74
2020/12/01 02:17:17;;;;;;;23.48;12.06;;;;;;;0.56;67.42;100359.17;348892;105;2388005;-74
2020/12/01 02:18:30;;;;;;;;;;;;;;;0.55;67.61;100354.81;372138;108;1960942;-74
2020/12/01 02:19:35;;;;;;;20.43;10.16;;;;;;;0.55;68.12;100360.13;339625;110;1961976;-74
2020/12/01 02:20:41;;;;;;;24.52;12.32;;;;;;;0.56;68.04;100361.84;368113;108;1961993;-75
2020/12/01 02:21:48;;;;;;;21.42;12.03;;;;;;;0.56;67.94;100360.02;369002;108;1960992;-75
2020/12/01 02:22:55;;;;;;;22.12;12.43;;;;;;;0.56;67.97;100356.52;354289;108;2291996;-74
2020/12/01 02:24:03;;;;;;;22.11;13.06;;;;;;;0.56;67.97;100351.20;368852;108;1962956;-75
2020/12/01 02:25:08;;;;;;;22.70;12.06;;;;;;;0.56;68.05;100356.52;369632;108;1961966;-74
2020/12/01 02:26:15;;;;;;;21.43;12.40;;;;;;;0.55;68.10;100355.64;369444;108;1963888;-74
2020/12/01 02:27:24;;;;;;;18.69;10.81;;;;;;;0.55;68.05;100350.33;347594;110;2388008;-74
2020/12/01 02:28:30;;;;;;;21.40;12.15;;;;;;;0.55;67.90;100358.30;329622;110;2948944;-75
2020/12/01 02:29:36;;;;;;;21.87;12.26;;;;;;;0.55;68.00;100352.16;359005;110;1961877;-74
2020/12/01 02:30:43;;;;;;;21.76;10.89;;;;;;;0.55;68.01;100365.44;361846;110;1961858;-75
2020/12/01 02:31:49;;;;;;;19.06;10.69;;;;;;;0.53;68.26;100356.73;340659;108;2409984;-75
2020/12/01 02:32:54;;;;;;;18.52;10.35;;;;;;;0.49;67.97;100361.47;369958;108;1961931;-75
2020/12/01 02:34:03;;;;;;;20.36;10.31;;;;;;;0.48;67.87;100365.11;369432;108;1961962;-75
2020/12/01 02:35:10;;;;;;;18.20;9.84;;;;;;;0.46;67.88;100364.38;368725;108;1961927;-74
2020/12/01 02:36:17;;;;;;;17.15;9.94;;;;;;;0.45;67.71;100370.68;348993;107;2387709;-74
2020/12/01 02:37:25;;;;;;;17.47;9.93;;;;;;;0.44;67.69;100376.94;369508;108;1961987;-75
2020/12/01 02:38:31;;;;;;;17.46;10.42;;;;;;;0.42;67.66;100374.42;321880;108;2244339;-75
2020/12/01 02:39:36;;;;;;;16.72;10.01;;;;;;;0.40;67.66;100373.70;355206;108;1962974;-74
2020/12/01 02:40:44;;;;;;;20.10;11.01;;;;;;;0.40;67.82;100386.15;368150;108;1962002;-76
2020/12/01 02:41:51;;;;;;;16.58;10.11;;;;;;;0.40;67.99;100384.33;353855;108;2265107;-75
2020/12/01 02:42:59;;;;;;;19.57;11.11;;;;;;;0.41;67.99;100395.80;369960;108;1963009;-75
2020/12/01 02:44:06;;;;;;;19.38;11.88;;;;;;;0.40;68.07;100394.13;368953;108;1962966;-74
2020/12/01 02:45:12;;;;;;;19.11;11.44;;;;;;;0.40;68.39;100394.96;333700;106;2655008;-75
2020/12/01 02:46:21;;;;;;;21.04;11.54;;;;;;;0.40;68.35;100392.30;368096;108;1962056;-74
2020/12/01 02:47:27;;;;;;;21.34;12.27;;;;;;;0.41;68.47;100387.83;336777;108;2598002;-75
2020/12/01 02:48:33;;;;;;;22.86;12.38;;;;;;;0.42;68.63;100400.13;371305;108;1962023;-75
2020/12/01 02:49:38;;;;;;;20.82;11.69;;;;;;;0.41;68.82;100393.14;368642;108;1962041;-74
2020/12/01 02:50:45;;;;;;;22.87;13.55;;;;;;;0.40;68.91;100392.30;354119;108;2258925;-75
2020/12/01 02:51:50;;;;;;;22.46;12.78;;;;;;;0.40;69.07;100394.13;346885;110;1961928;-74
2020/12/01 02:52:55;;;;;;;23.85;13.97;;;;;;;0.39;69.33;100392.41;364635;108;1962961;-74
2020/12/01 02:54:01;;;;;;;23.83;14.51;;;;;;;0.38;69.35;100396.89;356972;111;1965285;-73
2020/12/01 02:55:06;;;;;;;19.84;12.25;;;;;;;0.36;69.43;100392.66;358493;112;1962026;-74
2020/12/01 02:56:13;;;;;;;24.14;14.17;;;;;;;0.37;69.63;100394.34;356537;108;2218006;-75
2020/12/01 02:57:19;;;;;;;23.18;12.94;;;;;;;0.35;69.78;100404.27;368031;108;1961975;-74
2020/12/01 02:58:25;;;;;;;23.23;11.94;;;;;;;0.34;69.85;100395.43;369763;108;1961927;-75
2020/12/01 02:59:31;;;;;;;21.13;12.77;;;;;;;0.32;70.11;100391.20;335079;108;2635960;-74
2020/12/01 03:00:38;;;;;;;19.67;12.05;;;;;;;0.31;70.22;100395.67;369128;108;1962049;-74
2020/12/01 03:01:45;;;;;;;19.77;11.62;;;;;;;0.30;70.39;100393.16;320548;108;2218918;-74
2020/12/01 03:02:50;;;;;;;18.31;9.56;;;;;;;0.31;70.48;100393.02;366811;108;1961933;-75
2020/12/01 03:03:56;;;;;;;17.99;10.16;;;;;;;0.37;70.54;100395.21;368181;108;1961866;-74
2020/12/01 03:05:02;;;;;;;17.90;10.19;;;;;;;0.45;70.56;100391.94;369660;108;1961868;-76
2020/12/01 03:06:11;;;;;;;16.48;10.41;;;;;;;0.54;70.59;100383.21;331720;108;2558077;-75
2020/12/01 03:07:17;;;;;;;15.29;8.81;;;;;;;0.64;70.56;100381.50;366755;108;1961977;-75
2020/12/01 03:08:23;;;;;;;15.84;9.16;;;;;;;0.76;70.28;100384.12;329270;108;2691946;-74
2020/12/01 03:09:28;;;;;;;16.61;9.56;;;;;;;0.85;70.16;100380.73;354480;108;1964004;-74
2020/12/01 03:10:34;;;;;;;16.57;9.57;;;;;;;0.94;69.98;100387.94;369787;108;1962048;-75
2020/12/01 03:11:40;;;;;;;19.22;8.92;;;;;;;1.01;69.83;100378.48;368184;108;1961929;-74
2020/12/01 03:12:46;;;;;;;17.87;10.64;;;;;;;1.09;69.64;100380.52;367898;108;1961940;-75
2020/12/01 03:13:51;;;;;;;19.55;10.69;;;;;;;1.15;69.44;100376.50;329182;108;2236953;-74
2020/12/01 03:14:58;;;;;;;17.99;10.27;;;;;;;1.16;69.16;100375.52;365986;108;1961975;-74
2020/12/01 03:16:09;;;;;;;20.34;10.95;;;;;;;1.03;68.98;100355.27;372995;108;1961917;-74
2020/12/01 03:17:15;;;;;;;18.79;10.85;;;;;;;1.08;68.94;100376.15;343595;108;2878950;-74
2020/12/01 03:18:20;;;;;;;21.54;11.92;;;;;;;1.02;68.87;100374.00;342593;108;1961974;-75
2020/12/01 03:19:26;;;;;;;21.03;12.12;;;;;;;0.96;68.80;100370.05;369647;108;1961977;-74
2020/12/01 03:20:35;;;;;;;20.28;11.51;;;;;;;0.90;68.89;100373.22;367979;108;1962037;-74
2020/12/01 03:21:42;;;;;;;21.27;11.80;;;;;;;0.83;68.93;100375.52;368663;108;1961935;-75
2020/12/01 03:22:47;;;;;;;21.67;13.06;;;;;;;0.77;69.04;100377.86;352095;108;2291107;-74
2020/12/01 03:23:54;;;;;;;21.71;12.66;;;;;;;0.73;69.15;100384.38;343689;108;1962013;-74
2020/12/01 03:25:00;;;;;;;23.94;12.73;;;;;;;0.70;69.16;100384.63;368716;108;1961948;-74
2020/12/01 03:26:06;;;;;;;22.76;12.51;;;;;;;0.66;69.24;100384.02;348316;108;2238991;-74
2020/12/01 03:27:12;;;;;;;22.80;13.33;;;;;;;0.62;69.31;100388.75;369782;107;1960790;-75
2020/12/01 03:28:17;;;;;;;22.55;12.52;;;;;;;0.58;69.62;100394.43;371881;106;1962058;-72
2020/12/01 03:29:23;;;;;;;22.73;12.85;;;;;;;0.55;69.51;100389.37;369583;107;1961960;-73
2020/12/01 03:30:30;;;;;;;21.41;11.83;;;;;;;0.52;69.62;100398.44;363158;109;1960914;-73
2020/12/01 03:31:35;;;;;;;21.43;12.33;;;;;;;0.51;69.65;100394.09;377818;107;1962035;-73
2020/12/01 03:32:42;;;;;;;20.77;11.97;;;;;;;0.48;69.60;100394.34;377081;107;1960818;-74
2020/12/01 03:33:48;;;;;;;19.47;11.49;;;;;;;0.47;69.68;100397.12;365560;105;2213019;-73
2020/12/01 03:34:54;;;;;;;21.13;12.19;;;;;;;0.44;69.66;100398.20;369305;106;1961006;-74
2020/12/01 03:35:59;;;;;;;18.62;10.61;;;;;;;0.42;69.69;100397.48;377119;105;1960958;-74
2020/12/01 03:37:05;;;;;;;20.42;12.66;;;;;;;0.39;69.75;100403.88;377110;105;1960942;-74
2020/12/01 03:38:10;;;;;;;17.73;11.11;;;;;;;0.36;69.90;100398.81;342301;105;2593994;-73
2020/12/01 03:39:16;;;;;;;18.69;11.84;;;;;;;0.32;69.84;100401.83;375333;105;1962016;-75
2020/12/01 03:40:23;;;;;;;20.22;10.43;;;;;;;0.27;69.86;100396.91;367392;106;1961929;-74
2020/12/01 03:41:29;;;;;;;17.13;10.07;;;;;;;0.23;69.92;100397.27;323815;109;2706883;-73
2020/12/01 03:42:34;;;;;;;17.28;11.43;;;;;;;0.17;70.00;100394.13;354315;110;1961937;-73
2020/12/01 03:43:40;;;;;;;17.75;10.13;;;;;;;0.12;70.11;100387.48;374736;105;1962009;-74
2020/12/01 03:44:46;;;;;;;16.77;8.90;;;;;;;0.09;70.21;100398.36;373339;105;1961993;-74
2020/12/01 03:45:52;;;;;;;15.31;8.52;;;;;;;0.03;70.43;100393.51;340090;107;2506988;-73
2020/12/01 03:46:58;;;;;;;14.52;7.90;;;;;;;0.02;70.57;100400.63;333180;111;1964976;-73
2020/12/01 03:48:03;;;;;;;16.37;8.12;;;;;;;0.04;70.69;100401.37;367766;107;1962007;-74
2020/12/01 03:49:08;;;;;;;14.62;7.76;;;;;;;0.10;70.75;100400.04;371093;106;1961926;-74
2020/12/01 03:50:16;;;;;;;13.86;7.79;;;;;;;0.18;70.68;100401.11;336418;106;2937024;-74
2020/12/01 03:51:21;;;;;;;15.88;7.80;;;;;;;0.25;70.43;100401.48;354342;105;1962990;-75
2020/12/01 03:52:27;;;;;;;13.26;7.80;;;;;;;0.33;70.42;100399.06;376041;105;1962001;-74
2020/12/01 03:53:33;;;;;;;14.21;8.12;;;;;;;0.41;70.19;100403.77;376282;105;1960739;-74
2020/12/01 03:54:40;;;;;;;12.22;7.22;;;;;;;0.48;70.20;100399.67;349790;105;2388929;-75
2020/12/01 03:55:46;;;;;;;12.89;7.19;;;;;;;0.55;69.82;100402.66;366416;106;1961970;-74
2020/12/01 03:56:51;;;;;;;18.75;10.44;;;;;;;0.63;69.90;100392.25;368141;109;1961988;-75
2020/12/01 03:57:58;;;;;;;17.52;10.65;;;;;;;0.68;69.57;100395.38;361725;109;1963926;-74
2020/12/01 03:59:03;;;;;;;17.17;10.84;;;;;;;0.72;69.84;100396.84;316466;109;2170807;-74
2020/12/01 04:00:12;;;;;;;17.61;10.58;;;;;;;0.75;69.48;100393.08;359328;109;1961968;-74
2020/12/01 04:01:18;;;;;;;17.81;10.18;;;;;;;0.71;69.29;100391.62;348232;106;1961998;-74
2020/12/01 04:02:23;;;;;;;21.85;11.11;;;;;;;0.66;69.40;100389.34;371245;106;1961951;-75
2020/12/01 04:03:29;;;;;;;17.98;10.45;;;;;;;0.60;69.42;100388.02;359498;109;1962973;-73
2020/12/01 04:04:34;;;;;;;20.18;11.71;;;;;;;0.54;69.38;100385.87;368927;106;1961976;-74
2020/12/01 04:05:40;;;;;;;17.89;11.22;;;;;;;0.48;69.47;100391.69;329135;109;2584970;-75
2020/12/01 04:06:46;;;;;;;17.92;10.73;;;;;;;0.42;69.56;100386.84;353276;111;1962006;-76
2020/12/01 04:07:53;;;;;;;19.49;11.65;;;;;;;0.36;69.65;100388.19;368009;108;1961973;-76
2020/12/01 04:08:59;;;;;;;17.63;10.50;;;;;;;0.28;69.83;100387.95;344356;106;2482973;-76
2020/12/01 04:10:05;;;;;;;22.32;12.99;;;;;;;0.20;69.95;100385.06;370309;106;1962022;-75
2020/12/01 04:11:12;;;;;;;21.43;13.11;;;;;;;0.14;70.09;100388.22;369134;106;1961991;-74
2020/12/01 04:12:17;;;;;;;18.94;10.91;;;;;;;0.05;70.33;100383.61;350479;105;2444039;-75
2020/12/01 04:13:23;;;;;;;17.35;10.02;;;;;;;-0.02;70.45;100381.45;352988;109;1960859;-76
2020/12/01 04:14:28;;;;;;;17.78;9.34;;;;;;;-0.08;70.71;100386.37;363143;110;1960994;-76
2020/12/01 04:15:34;;;;;;;17.36;10.06;;;;;;;-0.09;70.90;100385.54;376332;105;1960960;-76
2020/12/01 04:16:41;;;;;;;16.88;9.98;;;;;;;-0.17;70.98;100373.84;330501;105;2090053;-76
2020/12/01 04:17:47;;;;;;;18.38;10.13;;;;;;;-0.06;71.09;100387.11;375346;105;1961947;-76
2020/12/01 04:18:53;;;;;;;20.12;10.14;;;;;;;-0.04;71.23;100380.72;376704;105;1961799;-76
2020/12/01 04:19:58;;;;;;;17.21;9.73;;;;;;;0.01;71.21;100388.33;374826;105;1962076;-76
2020/12/01 04:21:04;;;;;;;14.84;8.82;;;;;;;0.04;71.21;100377.46;369863;106;1962082;-76
2020/12/01 04:22:11;;;;;;;16.64;9.47;;;;;;;0.06;71.17;100380.84;339597;106;2536067;-76
2020/12/01 04:23:16;;;;;;;15.41;9.73;;;;;;;0.11;71.23;100380.50;372731;107;1961951;-78
2020/12/01 04:24:21;;;;;;;17.14;10.07;;;;;;;0.15;71.23;100381.92;372868;107;1960970;-77
2020/12/01 04:25:26;;;;;;;21.42;11.04;;;;;;;0.19;71.33;100384.23;374880;105;1961025;-77
2020/12/01 04:26:45;;;;;;;18.18;10.63;;;;;;;0.23;71.09;100389.29;334094;105;2766984;-77
2020/12/01 04:27:52;;;;;;;19.17;10.56;;;;;;;0.24;70.94;100383.87;360582;110;1961910;-77
2020/12/01 04:28:58;;;;;;;20.46;10.73;;;;;;;0.30;71.17;100387.84;309665;110;2865017;-75
2020/12/01 04:30:04;;;;;;;17.35;9.78;;;;;;;0.33;70.89;100387.59;344499;110;1961939;-77
2020/12/01 04:31:10;;;;;;;18.28;11.47;;;;;;;0.35;70.89;100386.51;357228;110;1962028;-76
2020/12/01 04:32:16;;;;;;;17.93;11.17;;;;;;;0.39;70.82;100387.94;357946;110;1963066;-77
2020/12/01 04:33:22;;;;;;;20.54;11.68;;;;;;;0.40;70.79;100394.96;325094;110;2604925;-76
2020/12/01 04:34:28;;;;;;;18.57;11.27;;;;;;;0.44;70.83;100388.41;339977;110;1961924;-76
2020/12/01 04:35:33;;;;;;;17.52;10.94;;;;;;;0.47;70.81;100382.01;359208;110;1961991;-77
2020/12/01 04:36:39;;;;;;;19.06;10.68;;;;;;;0.50;70.57;100379.09;358484;110;1962985;-77
2020/12/01 04:37:45;;;;;;;17.13;9.93;;;;;;;0.53;70.63;100385.98;359673;110;1961937;-77
2020/12/01 04:38:51;;;;;;;15.97;10.68;;;;;;;0.56;70.41;100388.42;335662;114;2298903;-76
2020/12/01 04:39:56;;;;;;;19.04;11.00;;;;;;;0.57;70.35;100385.62;326069;114;1961971;-76
2020/12/01 04:41:03;;;;;;;20.47;12.02;;;;;;;0.60;70.24;100389.84;360738;110;1961903;-76
2020/12/01 04:42:13;;;;;;;19.66;11.41;;;;;;;0.62;70.17;100382.59;360349;110;1961943;-76
2020/12/01 04:43:26;;;;;;;19.53;11.57;;;;;;;0.63;70.05;100382.45;359980;112;1962021;-76
2020/12/01 04:44:41;;;;;;;19.16;11.36;;;;;;;0.66;70.00;100376.05;358596;112;1961962;-76
2020/12/01 04:45:48;;;;;;;21.25;13.52;;;;;;;0.70;69.95;100374.84;358465;112;1961050;-77
2020/12/01 04:46:57;;;;;;;22.83;14.18;;;;;;;0.73;70.05;100379.06;313368;111;2889857;-76
2020/12/01 04:48:07;;;;;;;21.18;12.43;;;;;;;0.73;69.83;100379.90;361294;110;1961039;-76
2020/12/01 04:49:26;;;;;;;23.14;13.94;;;;;;;0.69;69.85;100385.59;323269;110;2714955;-77
2020/12/01 04:50:37;;;;;;;21.61;13.22;;;;;;;0.64;69.92;100381.50;341194;111;1961886;-77
2020/12/01 04:51:52;;;;;;;22.41;14.19;;;;;;;0.59;69.90;100383.69;324578;112;2017360;31
2020/12/01 04:53:16;;;;;;;21.04;13.73;;;;;;;0.53;69.98;100385.98;355000;109;1963018;-75
2020/12/01 04:54:31;;;;;;;21.44;13.17;;;;;;;0.42;70.13;100389.50;330037;107;2097579;-74
2020/12/01 04:56:15;;;;;;;26.00;15.13;;;;;;;0.30;70.47;100390.50;334756;107;1961951;-74
2020/12/01 04:57:33;;;;;;;22.34;13.41;;;;;;;0.19;70.58;100388.70;343642;109;2303973;-75
2020/12/01 04:58:52;;;;;;;23.01;13.08;;;;;;;0.11;70.93;100393.78;364699;109;1961893;-74
2020/12/01 05:00:19;;;;;;;22.10;13.23;;;;;;;0.10;71.50;100390.25;356674;111;1962027;-74
2020/12/01 05:01:31;;;;;;;24.03;13.22;;;;;;;0.12;71.27;100390.98;316990;109;2130587;-74
2020/12/01 05:02:46;;;;;;;22.16;15.57;;;;;;;0.17;71.34;100399.44;320014;111;1981004;-74
2020/12/01 05:04:06;;;;;;;21.52;12.53;;;;;;;0.23;71.28;100397.27;363917;109;1961925;-74
2020/12/01 05:06:01;;;;;;;19.41;11.33;;;;;;;0.29;71.30;100399.42;362774;109;1961928;-74
2020/12/01 05:07:33;;;;;;;21.44;12.11;;;;;;;0.34;71.17;100405.22;344444;114;1961987;-75